sensor_id;sensor_type;location;lat;lon;timestamp;P1;durP1;ratioP1;P2;durP2;ratioP2
75340;SDS011;64931;47.562;18.920;2023-05-07T00:01:47;10.10;;;3.60;;
75340;SDS011;64931;47.562;18.920;2023-05-07T00:04:13;5.20;;;3.90;;
75340;SDS011;64931;47.562;18.920;2023-05-07T00:06:38;7.00;;;4.00;;
75340;SDS011;64931;47.562;18.920;2023-05-07T00:09:04;6.20;;;4.00;;
75340;SDS011;64931;47.562;18.920;2023-05-07T00:11:30;6.00;;;4.00;;
75340;SDS011;64931;47.562;18.920;2023-05-07T00:13:56;6.70;;;3.70;;
75340;SDS011;64931;47.562;18.920;2023-05-07T00:16:21;6.00;;;4.10;;
75340;SDS011;64931;47.562;18.920;2023-05-07T00:18:47;5.20;;;3.80;;
75340;SDS011;64931;47.562;18.920;2023-05-07T00:21:12;5.70;;;4.00;;
75340;SDS011;64931;47.562;18.920;2023-05-07T00:23:38;8.10;;;4.00;;
75340;SDS011;64931;47.562;18.920;2023-05-07T00:26:03;7.70;;;3.60;;
75340;SDS011;64931;47.562;18.920;2023-05-07T00:28:29;6.40;;;4.00;;
75340;SDS011;64931;47.562;18.920;2023-05-07T00:30:54;5.50;;;3.90;;
75340;SDS011;64931;47.562;18.920;2023-05-07T00:33:20;6.60;;;4.30;;
75340;SDS011;64931;47.562;18.920;2023-05-07T00:35:47;7.00;;;4.50;;
75340;SDS011;64931;47.562;18.920;2023-05-07T00:38:13;6.70;;;4.50;;
75340;SDS011;64931;47.562;18.920;2023-05-07T00:40:38;6.20;;;3.60;;
75340;SDS011;64931;47.562;18.920;2023-05-07T00:43:04;8.90;;;4.60;;
75340;SDS011;64931;47.562;18.920;2023-05-07T00:45:29;6.00;;;4.30;;
75340;SDS011;64931;47.562;18.920;2023-05-07T00:47:55;6.90;;;4.40;;
75340;SDS011;64931;47.562;18.920;2023-05-07T00:50:21;5.90;;;4.40;;
75340;SDS011;64931;47.562;18.920;2023-05-07T00:52:47;6.60;;;4.90;;
75340;SDS011;64931;47.562;18.920;2023-05-07T00:55:13;5.80;;;4.00;;
75340;SDS011;64931;47.562;18.920;2023-05-07T00:57:40;6.80;;;4.40;;
75340;SDS011;64931;47.562;18.920;2023-05-07T01:00:06;5.90;;;4.20;;
75340;SDS011;64931;47.562;18.920;2023-05-07T01:02:40;6.30;;;4.50;;
75340;SDS011;64931;47.562;18.920;2023-05-07T01:05:07;6.00;;;3.80;;
75340;SDS011;64931;47.562;18.920;2023-05-07T01:09:59;5.50;;;4.10;;
75340;SDS011;64931;47.562;18.920;2023-05-07T01:12:25;6.20;;;4.40;;
75340;SDS011;64931;47.562;18.920;2023-05-07T01:14:52;6.60;;;4.80;;
75340;SDS011;64931;47.562;18.920;2023-05-07T01:17:18;9.00;;;5.40;;
75340;SDS011;64931;47.562;18.920;2023-05-07T01:19:44;8.80;;;5.00;;
75340;SDS011;64931;47.562;18.920;2023-05-07T01:22:09;6.80;;;5.10;;
75340;SDS011;64931;47.562;18.920;2023-05-07T01:24:39;7.50;;;5.20;;
75340;SDS011;64931;47.562;18.920;2023-05-07T01:27:05;9.60;;;5.50;;
75340;SDS011;64931;47.562;18.920;2023-05-07T01:29:30;7.30;;;5.80;;
75340;SDS011;64931;47.562;18.920;2023-05-07T01:31:59;6.50;;;4.90;;
75340;SDS011;64931;47.562;18.920;2023-05-07T01:34:26;7.40;;;4.90;;
75340;SDS011;64931;47.562;18.920;2023-05-07T01:36:54;7.00;;;5.20;;
75340;SDS011;64931;47.562;18.920;2023-05-07T01:39:27;6.40;;;4.60;;
75340;SDS011;64931;47.562;18.920;2023-05-07T01:41:57;6.50;;;4.50;;
75340;SDS011;64931;47.562;18.920;2023-05-07T01:44:24;7.10;;;4.90;;
75340;SDS011;64931;47.562;18.920;2023-05-07T01:46:50;7.90;;;5.20;;
75340;SDS011;64931;47.562;18.920;2023-05-07T01:49:15;7.70;;;6.00;;
75340;SDS011;64931;47.562;18.920;2023-05-07T01:51:41;9.30;;;6.60;;
75340;SDS011;64931;47.562;18.920;2023-05-07T01:54:08;9.30;;;7.10;;
75340;SDS011;64931;47.562;18.920;2023-05-07T01:56:33;8.70;;;5.70;;
75340;SDS011;64931;47.562;18.920;2023-05-07T01:58:59;7.30;;;5.40;;
75340;SDS011;64931;47.562;18.920;2023-05-07T02:01:24;6.60;;;5.10;;
75340;SDS011;64931;47.562;18.920;2023-05-07T02:03:50;6.50;;;4.30;;
75340;SDS011;64931;47.562;18.920;2023-05-07T02:06:15;6.30;;;4.20;;
75340;SDS011;64931;47.562;18.920;2023-05-07T02:08:41;7.60;;;4.70;;
75340;SDS011;64931;47.562;18.920;2023-05-07T02:11:06;6.70;;;4.80;;
75340;SDS011;64931;47.562;18.920;2023-05-07T02:13:32;5.80;;;4.50;;
75340;SDS011;64931;47.562;18.920;2023-05-07T02:15:58;8.60;;;6.10;;
75340;SDS011;64931;47.562;18.920;2023-05-07T02:18:23;8.00;;;6.60;;
75340;SDS011;64931;47.562;18.920;2023-05-07T02:20:49;8.90;;;6.50;;
75340;SDS011;64931;47.562;18.920;2023-05-07T02:23:14;8.30;;;6.50;;
75340;SDS011;64931;47.562;18.920;2023-05-07T02:25:40;8.70;;;5.80;;
75340;SDS011;64931;47.562;18.920;2023-05-07T02:28:05;6.80;;;5.40;;
75340;SDS011;64931;47.562;18.920;2023-05-07T02:30:31;7.80;;;5.90;;
75340;SDS011;64931;47.562;18.920;2023-05-07T02:32:56;7.50;;;5.50;;
75340;SDS011;64931;47.562;18.920;2023-05-07T02:35:23;6.60;;;4.80;;
75340;SDS011;64931;47.562;18.920;2023-05-07T02:37:49;6.70;;;4.70;;
75340;SDS011;64931;47.562;18.920;2023-05-07T02:40:15;8.30;;;6.50;;
75340;SDS011;64931;47.562;18.920;2023-05-07T02:42:40;10.30;;;6.90;;
75340;SDS011;64931;47.562;18.920;2023-05-07T02:45:06;10.90;;;6.50;;
75340;SDS011;64931;47.562;18.920;2023-05-07T02:47:32;12.90;;;6.60;;
75340;SDS011;64931;47.562;18.920;2023-05-07T02:49:57;8.80;;;5.80;;
75340;SDS011;64931;47.562;18.920;2023-05-07T02:52:22;7.00;;;5.20;;
75340;SDS011;64931;47.562;18.920;2023-05-07T02:54:48;6.40;;;4.80;;
75340;SDS011;64931;47.562;18.920;2023-05-07T02:57:13;7.00;;;4.80;;
75340;SDS011;64931;47.562;18.920;2023-05-07T02:59:39;7.60;;;5.10;;
75340;SDS011;64931;47.562;18.920;2023-05-07T03:02:05;6.60;;;4.70;;
75340;SDS011;64931;47.562;18.920;2023-05-07T03:04:30;6.40;;;5.10;;
75340;SDS011;64931;47.562;18.920;2023-05-07T03:06:55;7.40;;;5.30;;
75340;SDS011;64931;47.562;18.920;2023-05-07T03:09:21;6.20;;;4.50;;
75340;SDS011;64931;47.562;18.920;2023-05-07T03:11:46;6.30;;;4.40;;
75340;SDS011;64931;47.562;18.920;2023-05-07T03:14:12;7.00;;;4.90;;
75340;SDS011;64931;47.562;18.920;2023-05-07T03:16:37;7.10;;;4.90;;
75340;SDS011;64931;47.562;18.920;2023-05-07T03:19:03;6.90;;;4.60;;
75340;SDS011;64931;47.562;18.920;2023-05-07T03:21:28;6.50;;;4.80;;
75340;SDS011;64931;47.562;18.920;2023-05-07T03:23:54;6.80;;;5.20;;
75340;SDS011;64931;47.562;18.920;2023-05-07T03:26:20;7.00;;;4.90;;
75340;SDS011;64931;47.562;18.920;2023-05-07T03:28:46;7.70;;;5.00;;
75340;SDS011;64931;47.562;18.920;2023-05-07T03:31:11;6.90;;;5.10;;
75340;SDS011;64931;47.562;18.920;2023-05-07T03:33:38;8.60;;;4.70;;
75340;SDS011;64931;47.562;18.920;2023-05-07T03:36:12;6.00;;;4.20;;
75340;SDS011;64931;47.562;18.920;2023-05-07T03:38:38;7.30;;;4.40;;
75340;SDS011;64931;47.562;18.920;2023-05-07T03:41:03;7.70;;;4.50;;
75340;SDS011;64931;47.562;18.920;2023-05-07T03:43:29;7.50;;;4.10;;
75340;SDS011;64931;47.562;18.920;2023-05-07T03:45:54;7.00;;;4.40;;
75340;SDS011;64931;47.562;18.920;2023-05-07T03:48:19;6.40;;;4.40;;
75340;SDS011;64931;47.562;18.920;2023-05-07T03:50:46;6.10;;;4.30;;
75340;SDS011;64931;47.562;18.920;2023-05-07T03:53:12;6.20;;;4.20;;
75340;SDS011;64931;47.562;18.920;2023-05-07T03:55:38;5.90;;;4.50;;
75340;SDS011;64931;47.562;18.920;2023-05-07T03:58:03;6.10;;;4.20;;
75340;SDS011;64931;47.562;18.920;2023-05-07T04:00:29;9.00;;;4.50;;
75340;SDS011;64931;47.562;18.920;2023-05-07T04:02:58;7.20;;;4.80;;
75340;SDS011;64931;47.562;18.920;2023-05-07T04:05:24;7.30;;;4.80;;
75340;SDS011;64931;47.562;18.920;2023-05-07T04:07:49;8.60;;;4.60;;
75340;SDS011;64931;47.562;18.920;2023-05-07T04:10:15;7.80;;;4.30;;
75340;SDS011;64931;47.562;18.920;2023-05-07T04:12:40;6.40;;;4.70;;
75340;SDS011;64931;47.562;18.920;2023-05-07T04:15:06;6.90;;;5.00;;
75340;SDS011;64931;47.562;18.920;2023-05-07T04:17:32;5.90;;;4.70;;
75340;SDS011;64931;47.562;18.920;2023-05-07T04:19:57;6.10;;;4.70;;
75340;SDS011;64931;47.562;18.920;2023-05-07T04:22:22;6.20;;;4.50;;
75340;SDS011;64931;47.562;18.920;2023-05-07T04:24:48;6.40;;;3.90;;
75340;SDS011;64931;47.562;18.920;2023-05-07T04:27:13;8.70;;;4.30;;
75340;SDS011;64931;47.562;18.920;2023-05-07T04:29:38;8.30;;;5.10;;
75340;SDS011;64931;47.562;18.920;2023-05-07T04:32:07;6.90;;;4.60;;
75340;SDS011;64931;47.562;18.920;2023-05-07T04:34:34;6.50;;;4.40;;
75340;SDS011;64931;47.562;18.920;2023-05-07T04:36:59;6.40;;;4.50;;
75340;SDS011;64931;47.562;18.920;2023-05-07T04:39:25;7.80;;;4.70;;
75340;SDS011;64931;47.562;18.920;2023-05-07T04:41:51;6.30;;;4.40;;
75340;SDS011;64931;47.562;18.920;2023-05-07T04:44:16;6.40;;;4.30;;
75340;SDS011;64931;47.562;18.920;2023-05-07T04:46:41;5.50;;;4.10;;
75340;SDS011;64931;47.562;18.920;2023-05-07T04:49:07;6.90;;;4.60;;
75340;SDS011;64931;47.562;18.920;2023-05-07T04:51:32;5.90;;;4.40;;
75340;SDS011;64931;47.562;18.920;2023-05-07T04:53:58;6.10;;;4.20;;
75340;SDS011;64931;47.562;18.920;2023-05-07T04:56:23;6.50;;;4.80;;
75340;SDS011;64931;47.562;18.920;2023-05-07T04:58:48;8.50;;;4.60;;
75340;SDS011;64931;47.562;18.920;2023-05-07T05:01:14;6.30;;;4.30;;
75340;SDS011;64931;47.562;18.920;2023-05-07T05:03:39;7.50;;;4.30;;
75340;SDS011;64931;47.562;18.920;2023-05-07T05:06:05;6.10;;;4.60;;
75340;SDS011;64931;47.562;18.920;2023-05-07T05:08:31;5.50;;;3.80;;
75340;SDS011;64931;47.562;18.920;2023-05-07T05:10:56;7.70;;;4.30;;
75340;SDS011;64931;47.562;18.920;2023-05-07T05:13:22;5.80;;;4.20;;
75340;SDS011;64931;47.562;18.920;2023-05-07T05:15:47;6.20;;;4.10;;
75340;SDS011;64931;47.562;18.920;2023-05-07T05:18:13;5.00;;;3.60;;
75340;SDS011;64931;47.562;18.920;2023-05-07T05:20:38;7.30;;;3.70;;
75340;SDS011;64931;47.562;18.920;2023-05-07T05:23:04;5.70;;;3.90;;
75340;SDS011;64931;47.562;18.920;2023-05-07T05:25:29;6.20;;;4.00;;
75340;SDS011;64931;47.562;18.920;2023-05-07T05:27:54;6.20;;;4.30;;
75340;SDS011;64931;47.562;18.920;2023-05-07T05:30:20;5.50;;;3.50;;
75340;SDS011;64931;47.562;18.920;2023-05-07T05:32:45;5.00;;;3.40;;
75340;SDS011;64931;47.562;18.920;2023-05-07T05:35:10;4.80;;;3.20;;
75340;SDS011;64931;47.562;18.920;2023-05-07T05:37:36;5.20;;;2.80;;
75340;SDS011;64931;47.562;18.920;2023-05-07T05:40:01;4.10;;;2.40;;
75340;SDS011;64931;47.562;18.920;2023-05-07T05:42:27;4.60;;;2.40;;
75340;SDS011;64931;47.562;18.920;2023-05-07T05:44:52;5.50;;;2.90;;
75340;SDS011;64931;47.562;18.920;2023-05-07T05:47:18;3.80;;;2.60;;
75340;SDS011;64931;47.562;18.920;2023-05-07T05:49:43;5.30;;;2.90;;
75340;SDS011;64931;47.562;18.920;2023-05-07T05:52:08;5.60;;;3.00;;
75340;SDS011;64931;47.562;18.920;2023-05-07T05:54:38;4.20;;;2.70;;
75340;SDS011;64931;47.562;18.920;2023-05-07T05:57:04;5.20;;;2.70;;
75340;SDS011;64931;47.562;18.920;2023-05-07T05:59:29;4.70;;;3.00;;
75340;SDS011;64931;47.562;18.920;2023-05-07T06:01:55;5.00;;;3.20;;
75340;SDS011;64931;47.562;18.920;2023-05-07T06:04:20;4.40;;;2.80;;
75340;SDS011;64931;47.562;18.920;2023-05-07T06:06:46;5.30;;;3.30;;
75340;SDS011;64931;47.562;18.920;2023-05-07T06:09:11;4.80;;;3.20;;
75340;SDS011;64931;47.562;18.920;2023-05-07T06:11:37;4.30;;;2.80;;
75340;SDS011;64931;47.562;18.920;2023-05-07T06:14:02;3.80;;;2.50;;
75340;SDS011;64931;47.562;18.920;2023-05-07T06:16:28;4.10;;;2.70;;
75340;SDS011;64931;47.562;18.920;2023-05-07T06:18:53;7.20;;;3.00;;
75340;SDS011;64931;47.562;18.920;2023-05-07T06:21:19;4.80;;;2.90;;
75340;SDS011;64931;47.562;18.920;2023-05-07T06:23:44;4.30;;;2.60;;
75340;SDS011;64931;47.562;18.920;2023-05-07T06:26:09;4.60;;;2.60;;
75340;SDS011;64931;47.562;18.920;2023-05-07T06:28:35;5.40;;;2.80;;
75340;SDS011;64931;47.562;18.920;2023-05-07T06:31:13;4.20;;;2.50;;
75340;SDS011;64931;47.562;18.920;2023-05-07T06:33:40;5.10;;;2.10;;
75340;SDS011;64931;47.562;18.920;2023-05-07T06:36:05;4.10;;;2.10;;
75340;SDS011;64931;47.562;18.920;2023-05-07T06:38:31;3.30;;;2.10;;
75340;SDS011;64931;47.562;18.920;2023-05-07T06:40:56;4.50;;;2.10;;
75340;SDS011;64931;47.562;18.920;2023-05-07T06:43:22;3.50;;;1.70;;
75340;SDS011;64931;47.562;18.920;2023-05-07T06:45:47;2.60;;;1.60;;
75340;SDS011;64931;47.562;18.920;2023-05-07T06:48:13;3.30;;;1.80;;
75340;SDS011;64931;47.562;18.920;2023-05-07T06:50:38;3.20;;;1.70;;
75340;SDS011;64931;47.562;18.920;2023-05-07T06:53:03;2.40;;;1.50;;
75340;SDS011;64931;47.562;18.920;2023-05-07T06:55:29;4.00;;;1.80;;
75340;SDS011;64931;47.562;18.920;2023-05-07T06:57:54;4.40;;;1.80;;
75340;SDS011;64931;47.562;18.920;2023-05-07T07:00:20;2.60;;;1.50;;
75340;SDS011;64931;47.562;18.920;2023-05-07T07:02:45;3.50;;;1.50;;
75340;SDS011;64931;47.562;18.920;2023-05-07T07:05:11;3.10;;;1.30;;
75340;SDS011;64931;47.562;18.920;2023-05-07T07:07:36;2.70;;;1.50;;
75340;SDS011;64931;47.562;18.920;2023-05-07T07:10:02;4.10;;;1.50;;
75340;SDS011;64931;47.562;18.920;2023-05-07T07:12:29;3.70;;;1.50;;
75340;SDS011;64931;47.562;18.920;2023-05-07T07:14:54;3.30;;;1.70;;
75340;SDS011;64931;47.562;18.920;2023-05-07T07:17:20;3.30;;;1.80;;
75340;SDS011;64931;47.562;18.920;2023-05-07T07:19:45;3.70;;;2.10;;
75340;SDS011;64931;47.562;18.920;2023-05-07T07:22:11;4.70;;;1.80;;
75340;SDS011;64931;47.562;18.920;2023-05-07T07:24:36;6.20;;;2.40;;
75340;SDS011;64931;47.562;18.920;2023-05-07T07:27:02;5.00;;;2.20;;
75340;SDS011;64931;47.562;18.920;2023-05-07T07:29:27;5.00;;;2.70;;
75340;SDS011;64931;47.562;18.920;2023-05-07T07:31:52;3.90;;;2.50;;
75340;SDS011;64931;47.562;18.920;2023-05-07T07:34:18;5.80;;;2.50;;
75340;SDS011;64931;47.562;18.920;2023-05-07T07:36:43;3.90;;;2.20;;
75340;SDS011;64931;47.562;18.920;2023-05-07T07:39:09;3.70;;;2.00;;
75340;SDS011;64931;47.562;18.920;2023-05-07T07:41:34;3.40;;;2.30;;
75340;SDS011;64931;47.562;18.920;2023-05-07T07:44:00;3.40;;;1.90;;
75340;SDS011;64931;47.562;18.920;2023-05-07T07:46:25;3.60;;;1.80;;
75340;SDS011;64931;47.562;18.920;2023-05-07T07:48:51;3.10;;;1.80;;
75340;SDS011;64931;47.562;18.920;2023-05-07T07:51:17;3.30;;;2.00;;
75340;SDS011;64931;47.562;18.920;2023-05-07T07:53:42;3.60;;;2.00;;
75340;SDS011;64931;47.562;18.920;2023-05-07T07:56:08;3.90;;;2.00;;
75340;SDS011;64931;47.562;18.920;2023-05-07T07:58:34;4.20;;;2.00;;
75340;SDS011;64931;47.562;18.920;2023-05-07T08:01:00;3.30;;;1.80;;
75340;SDS011;64931;47.562;18.920;2023-05-07T08:03:26;3.80;;;2.10;;
75340;SDS011;64931;47.562;18.920;2023-05-07T08:05:51;3.70;;;1.80;;
75340;SDS011;64931;47.562;18.920;2023-05-07T08:08:16;3.10;;;1.80;;
75340;SDS011;64931;47.562;18.920;2023-05-07T08:10:42;5.60;;;2.20;;
75340;SDS011;64931;47.562;18.920;2023-05-07T08:13:07;3.10;;;1.90;;
75340;SDS011;64931;47.562;18.920;2023-05-07T08:15:33;3.90;;;2.20;;
75340;SDS011;64931;47.562;18.920;2023-05-07T08:17:58;5.00;;;2.30;;
75340;SDS011;64931;47.562;18.920;2023-05-07T08:20:25;4.30;;;3.10;;
75340;SDS011;64931;47.562;18.920;2023-05-07T08:22:51;4.00;;;2.60;;
75340;SDS011;64931;47.562;18.920;2023-05-07T08:25:16;4.70;;;2.80;;
75340;SDS011;64931;47.562;18.920;2023-05-07T08:27:41;4.20;;;2.80;;
75340;SDS011;64931;47.562;18.920;2023-05-07T08:30:07;8.90;;;2.90;;
75340;SDS011;64931;47.562;18.920;2023-05-07T08:32:33;4.90;;;2.90;;
75340;SDS011;64931;47.562;18.920;2023-05-07T08:34:59;4.80;;;2.80;;
75340;SDS011;64931;47.562;18.920;2023-05-07T08:37:25;4.70;;;3.30;;
75340;SDS011;64931;47.562;18.920;2023-05-07T08:39:50;4.80;;;3.40;;
75340;SDS011;64931;47.562;18.920;2023-05-07T08:42:16;7.20;;;4.00;;
75340;SDS011;64931;47.562;18.920;2023-05-07T08:44:43;5.80;;;2.90;;
75340;SDS011;64931;47.562;18.920;2023-05-07T08:47:11;4.50;;;3.00;;
75340;SDS011;64931;47.562;18.920;2023-05-07T08:49:38;5.60;;;3.00;;
75340;SDS011;64931;47.562;18.920;2023-05-07T08:52:03;4.80;;;3.30;;
75340;SDS011;64931;47.562;18.920;2023-05-07T08:54:29;5.20;;;3.40;;
75340;SDS011;64931;47.562;18.920;2023-05-07T08:56:55;5.30;;;3.40;;
75340;SDS011;64931;47.562;18.920;2023-05-07T08:59:21;4.90;;;3.00;;
75340;SDS011;64931;47.562;18.920;2023-05-07T09:01:46;4.90;;;3.00;;
75340;SDS011;64931;47.562;18.920;2023-05-07T09:04:12;5.50;;;3.00;;
75340;SDS011;64931;47.562;18.920;2023-05-07T09:06:38;4.10;;;3.00;;
75340;SDS011;64931;47.562;18.920;2023-05-07T09:09:07;3.90;;;2.70;;
75340;SDS011;64931;47.562;18.920;2023-05-07T09:11:33;4.90;;;3.20;;
75340;SDS011;64931;47.562;18.920;2023-05-07T09:13:58;4.70;;;3.00;;
75340;SDS011;64931;47.562;18.920;2023-05-07T09:18:52;7.20;;;3.60;;
75340;SDS011;64931;47.562;18.920;2023-05-07T09:21:19;5.30;;;3.60;;
75340;SDS011;64931;47.562;18.920;2023-05-07T09:23:47;4.50;;;2.90;;
75340;SDS011;64931;47.562;18.920;2023-05-07T09:26:14;4.70;;;3.30;;
75340;SDS011;64931;47.562;18.920;2023-05-07T09:28:39;4.20;;;3.20;;
75340;SDS011;64931;47.562;18.920;2023-05-07T09:31:06;5.30;;;3.20;;
75340;SDS011;64931;47.562;18.920;2023-05-07T09:33:32;6.20;;;3.90;;
75340;SDS011;64931;47.562;18.920;2023-05-07T09:35:58;5.90;;;4.90;;
75340;SDS011;64931;47.562;18.920;2023-05-07T09:38:23;6.50;;;5.00;;
75340;SDS011;64931;47.562;18.920;2023-05-07T09:40:57;6.90;;;5.00;;
75340;SDS011;64931;47.562;18.920;2023-05-07T09:43:34;7.20;;;4.40;;
75340;SDS011;64931;47.562;18.920;2023-05-07T09:46:06;5.90;;;5.00;;
75340;SDS011;64931;47.562;18.920;2023-05-07T09:48:40;6.20;;;4.60;;
75340;SDS011;64931;47.562;18.920;2023-05-07T09:51:28;6.70;;;4.20;;
75340;SDS011;64931;47.562;18.920;2023-05-07T09:53:55;5.60;;;4.40;;
75340;SDS011;64931;47.562;18.920;2023-05-07T09:56:22;5.30;;;3.70;;
75340;SDS011;64931;47.562;18.920;2023-05-07T09:58:47;7.00;;;5.30;;
75340;SDS011;64931;47.562;18.920;2023-05-07T10:01:13;7.50;;;5.40;;
75340;SDS011;64931;47.562;18.920;2023-05-07T10:03:41;8.10;;;6.20;;
75340;SDS011;64931;47.562;18.920;2023-05-07T10:06:09;8.70;;;6.60;;
75340;SDS011;64931;47.562;18.920;2023-05-07T10:08:36;8.20;;;6.40;;
75340;SDS011;64931;47.562;18.920;2023-05-07T10:11:03;8.10;;;6.10;;
75340;SDS011;64931;47.562;18.920;2023-05-07T10:13:29;7.60;;;5.90;;
75340;SDS011;64931;47.562;18.920;2023-05-07T10:15:55;8.00;;;5.60;;
75340;SDS011;64931;47.562;18.920;2023-05-07T10:18:21;10.00;;;5.70;;
75340;SDS011;64931;47.562;18.920;2023-05-07T10:20:54;7.30;;;5.40;;
75340;SDS011;64931;47.562;18.920;2023-05-07T10:23:30;9.10;;;6.60;;
75340;SDS011;64931;47.562;18.920;2023-05-07T10:25:56;9.10;;;6.60;;
75340;SDS011;64931;47.562;18.920;2023-05-07T10:28:22;7.90;;;6.30;;
75340;SDS011;64931;47.562;18.920;2023-05-07T10:30:56;7.40;;;5.90;;
75340;SDS011;64931;47.562;18.920;2023-05-07T10:35:55;9.00;;;5.10;;
75340;SDS011;64931;47.562;18.920;2023-05-07T10:38:22;6.30;;;4.80;;
75340;SDS011;64931;47.562;18.920;2023-05-07T10:40:50;5.90;;;4.50;;
75340;SDS011;64931;47.562;18.920;2023-05-07T10:43:15;7.50;;;4.60;;
75340;SDS011;64931;47.562;18.920;2023-05-07T10:45:40;7.00;;;4.90;;
75340;SDS011;64931;47.562;18.920;2023-05-07T10:50:39;7.00;;;5.00;;
75340;SDS011;64931;47.562;18.920;2023-05-07T10:53:26;7.60;;;5.40;;
75340;SDS011;64931;47.562;18.920;2023-05-07T10:58:53;7.40;;;5.60;;
75340;SDS011;64931;47.562;18.920;2023-05-07T11:01:49;7.70;;;5.00;;
75340;SDS011;64931;47.562;18.920;2023-05-07T11:04:20;8.60;;;4.70;;
75340;SDS011;64931;47.562;18.920;2023-05-07T11:13:02;6.40;;;5.40;;
75340;SDS011;64931;47.562;18.920;2023-05-07T11:15:06;8.60;;;6.10;;
75340;SDS011;64931;47.562;18.920;2023-05-07T11:17:55;10.10;;;6.10;;
75340;SDS011;64931;47.562;18.920;2023-05-07T11:20:43;6.20;;;5.60;;
75340;SDS011;64931;47.562;18.920;2023-05-07T11:23:45;5.90;;;4.90;;
75340;SDS011;64931;47.562;18.920;2023-05-07T11:26:00;7.40;;;4.70;;
75340;SDS011;64931;47.562;18.920;2023-05-07T11:28:32;5.70;;;4.70;;
75340;SDS011;64931;47.562;18.920;2023-05-07T11:31:02;6.00;;;4.70;;
75340;SDS011;64931;47.562;18.920;2023-05-07T11:33:29;4.80;;;3.40;;
75340;SDS011;64931;47.562;18.920;2023-05-07T11:35:55;6.10;;;4.80;;
75340;SDS011;64931;47.562;18.920;2023-05-07T11:38:22;5.60;;;4.10;;
75340;SDS011;64931;47.562;18.920;2023-05-07T11:40:51;6.50;;;4.20;;
75340;SDS011;64931;47.562;18.920;2023-05-07T11:43:17;5.90;;;4.10;;
75340;SDS011;64931;47.562;18.920;2023-05-07T11:45:44;6.30;;;4.60;;
75340;SDS011;64931;47.562;18.920;2023-05-07T11:48:10;6.00;;;3.80;;
75340;SDS011;64931;47.562;18.920;2023-05-07T11:50:49;5.70;;;3.90;;
75340;SDS011;64931;47.562;18.920;2023-05-07T11:53:19;5.40;;;4.60;;
75340;SDS011;64931;47.562;18.920;2023-05-07T11:55:45;5.40;;;4.20;;
75340;SDS011;64931;47.562;18.920;2023-05-07T11:58:11;6.00;;;3.80;;
75340;SDS011;64931;47.562;18.920;2023-05-07T12:00:37;6.10;;;3.50;;
75340;SDS011;64931;47.562;18.920;2023-05-07T12:03:06;6.60;;;3.60;;
75340;SDS011;64931;47.562;18.920;2023-05-07T12:05:31;6.90;;;4.10;;
75340;SDS011;64931;47.562;18.920;2023-05-07T12:07:57;4.50;;;3.50;;
75340;SDS011;64931;47.562;18.920;2023-05-07T12:10:23;6.00;;;3.80;;
75340;SDS011;64931;47.562;18.920;2023-05-07T12:12:50;5.10;;;3.30;;
75340;SDS011;64931;47.562;18.920;2023-05-07T12:15:15;4.80;;;3.50;;
75340;SDS011;64931;47.562;18.920;2023-05-07T12:17:42;4.80;;;3.70;;
75340;SDS011;64931;47.562;18.920;2023-05-07T12:20:08;4.80;;;3.80;;
75340;SDS011;64931;47.562;18.920;2023-05-07T12:22:34;4.60;;;3.30;;
75340;SDS011;64931;47.562;18.920;2023-05-07T12:25:01;4.70;;;3.30;;
75340;SDS011;64931;47.562;18.920;2023-05-07T12:27:27;6.70;;;4.10;;
75340;SDS011;64931;47.562;18.920;2023-05-07T12:29:52;5.60;;;3.50;;
75340;SDS011;64931;47.562;18.920;2023-05-07T12:32:19;5.10;;;3.60;;
75340;SDS011;64931;47.562;18.920;2023-05-07T12:34:45;4.60;;;3.40;;
75340;SDS011;64931;47.562;18.920;2023-05-07T12:37:12;7.60;;;4.00;;
75340;SDS011;64931;47.562;18.920;2023-05-07T12:39:38;6.90;;;4.00;;
75340;SDS011;64931;47.562;18.920;2023-05-07T12:42:09;4.70;;;4.10;;
75340;SDS011;64931;47.562;18.920;2023-05-07T12:44:40;6.10;;;4.10;;
75340;SDS011;64931;47.562;18.920;2023-05-07T12:47:05;5.30;;;3.70;;
75340;SDS011;64931;47.562;18.920;2023-05-07T12:49:31;5.90;;;3.50;;
75340;SDS011;64931;47.562;18.920;2023-05-07T12:51:56;5.00;;;3.50;;
75340;SDS011;64931;47.562;18.920;2023-05-07T12:54:31;7.30;;;3.50;;
75340;SDS011;64931;47.562;18.920;2023-05-07T12:57:01;4.40;;;3.10;;
75340;SDS011;64931;47.562;18.920;2023-05-07T12:59:32;5.20;;;3.40;;
75340;SDS011;64931;47.562;18.920;2023-05-07T13:02:05;5.30;;;3.40;;
75340;SDS011;64931;47.562;18.920;2023-05-07T13:04:31;4.30;;;2.80;;
75340;SDS011;64931;47.562;18.920;2023-05-07T13:06:56;6.80;;;3.20;;
75340;SDS011;64931;47.562;18.920;2023-05-07T13:09:21;3.90;;;2.40;;
75340;SDS011;64931;47.562;18.920;2023-05-07T13:11:47;5.70;;;3.20;;
75340;SDS011;64931;47.562;18.920;2023-05-07T13:14:12;5.00;;;3.80;;
75340;SDS011;64931;47.562;18.920;2023-05-07T13:16:37;5.70;;;4.10;;
75340;SDS011;64931;47.562;18.920;2023-05-07T13:19:03;5.20;;;3.80;;
75340;SDS011;64931;47.562;18.920;2023-05-07T13:21:29;5.30;;;3.50;;
75340;SDS011;64931;47.562;18.920;2023-05-07T13:23:56;6.00;;;3.90;;
75340;SDS011;64931;47.562;18.920;2023-05-07T13:26:23;6.20;;;3.70;;
75340;SDS011;64931;47.562;18.920;2023-05-07T13:28:49;5.70;;;4.40;;
75340;SDS011;64931;47.562;18.920;2023-05-07T13:31:15;6.90;;;4.60;;
75340;SDS011;64931;47.562;18.920;2023-05-07T13:33:40;6.50;;;4.30;;
75340;SDS011;64931;47.562;18.920;2023-05-07T13:36:06;6.30;;;3.90;;
75340;SDS011;64931;47.562;18.920;2023-05-07T13:38:31;7.50;;;3.70;;
75340;SDS011;64931;47.562;18.920;2023-05-07T13:40:57;5.00;;;3.60;;
75340;SDS011;64931;47.562;18.920;2023-05-07T13:43:22;5.80;;;3.90;;
75340;SDS011;64931;47.562;18.920;2023-05-07T13:45:48;5.60;;;3.30;;
75340;SDS011;64931;47.562;18.920;2023-05-07T13:48:13;5.30;;;3.70;;
75340;SDS011;64931;47.562;18.920;2023-05-07T13:50:38;6.70;;;3.70;;
75340;SDS011;64931;47.562;18.920;2023-05-07T13:53:04;5.90;;;3.60;;
75340;SDS011;64931;47.562;18.920;2023-05-07T13:55:30;5.20;;;3.60;;
75340;SDS011;64931;47.562;18.920;2023-05-07T13:57:56;6.50;;;3.70;;
75340;SDS011;64931;47.562;18.920;2023-05-07T14:00:23;4.70;;;3.50;;
75340;SDS011;64931;47.562;18.920;2023-05-07T14:02:49;5.20;;;3.90;;
75340;SDS011;64931;47.562;18.920;2023-05-07T14:05:14;5.10;;;3.40;;
75340;SDS011;64931;47.562;18.920;2023-05-07T14:07:39;5.70;;;3.60;;
75340;SDS011;64931;47.562;18.920;2023-05-07T14:10:05;5.30;;;3.90;;
75340;SDS011;64931;47.562;18.920;2023-05-07T14:12:31;5.70;;;3.90;;
75340;SDS011;64931;47.562;18.920;2023-05-07T14:14:57;5.00;;;3.20;;
75340;SDS011;64931;47.562;18.920;2023-05-07T14:17:23;5.40;;;3.40;;
75340;SDS011;64931;47.562;18.920;2023-05-07T14:19:50;5.70;;;3.70;;
75340;SDS011;64931;47.562;18.920;2023-05-07T14:22:15;5.50;;;3.80;;
75340;SDS011;64931;47.562;18.920;2023-05-07T14:24:41;5.00;;;3.80;;
75340;SDS011;64931;47.562;18.920;2023-05-07T14:27:06;5.80;;;3.70;;
75340;SDS011;64931;47.562;18.920;2023-05-07T14:29:32;6.50;;;4.30;;
75340;SDS011;64931;47.562;18.920;2023-05-07T14:31:57;6.40;;;5.50;;
75340;SDS011;64931;47.562;18.920;2023-05-07T14:34:23;5.60;;;4.60;;
75340;SDS011;64931;47.562;18.920;2023-05-07T14:36:48;5.10;;;4.30;;
75340;SDS011;64931;47.562;18.920;2023-05-07T14:39:13;5.80;;;4.50;;
75340;SDS011;64931;47.562;18.920;2023-05-07T14:41:39;6.00;;;4.60;;
75340;SDS011;64931;47.562;18.920;2023-05-07T14:44:04;6.00;;;4.30;;
75340;SDS011;64931;47.562;18.920;2023-05-07T14:46:30;5.30;;;3.90;;
75340;SDS011;64931;47.562;18.920;2023-05-07T14:48:58;6.10;;;4.70;;